sensor_id;sensor_type;location;lat;lon;timestamp;pressure;altitude;pressure_sealevel;temperature;humidity
83140;BME280;73027;54.208;19.128;2024-01-06T00:01:21;101268.56;;;0.05;61.27
83140;BME280;73027;54.208;19.128;2024-01-06T00:03:46;101271.06;;;0.02;59.75
83140;BME280;73027;54.208;19.128;2024-01-06T00:06:13;101269.22;;;-0.07;60.80
83140;BME280;73027;54.208;19.128;2024-01-06T00:08:40;101266.81;;;0.01;60.56
83140;BME280;73027;54.208;19.128;2024-01-06T00:11:05;101266.25;;;0.17;60.73
83140;BME280;73027;54.208;19.128;2024-01-06T00:13:31;101254.59;;;0.27;60.40
83140;BME280;73027;54.208;19.128;2024-01-06T00:15:56;101271.66;;;0.38;59.87
83140;BME280;73027;54.208;19.128;2024-01-06T00:18:22;101274.91;;;0.30;59.87
83140;BME280;73027;54.208;19.128;2024-01-06T00:20:48;101280.09;;;0.37;60.11
83140;BME280;73027;54.208;19.128;2024-01-06T00:23:13;101270.28;;;0.60;59.63
83140;BME280;73027;54.208;19.128;2024-01-06T00:25:38;101274.59;;;0.64;58.95
83140;BME280;73027;54.208;19.128;2024-01-06T00:28:04;101262.50;;;0.48;59.66
83140;BME280;73027;54.208;19.128;2024-01-06T00:30:30;101277.09;;;0.61;58.97
83140;BME280;73027;54.208;19.128;2024-01-06T00:32:55;101273.78;;;0.68;59.88
83140;BME280;73027;54.208;19.128;2024-01-06T00:35:20;101267.91;;;0.69;58.97
83140;BME280;73027;54.208;19.128;2024-01-06T00:37:47;101273.97;;;0.82;58.88
83140;BME280;73027;54.208;19.128;2024-01-06T00:40:12;101269.00;;;0.89;59.19
83140;BME280;73027;54.208;19.128;2024-01-06T00:42:38;101278.47;;;1.01;58.42
83140;BME280;73027;54.208;19.128;2024-01-06T00:45:04;101276.00;;;1.06;58.66
83140;BME280;73027;54.208;19.128;2024-01-06T00:47:31;101277.69;;;1.05;58.30
83140;BME280;73027;54.208;19.128;2024-01-06T00:49:57;101279.34;;;1.05;58.47
83140;BME280;73027;54.208;19.128;2024-01-06T00:52:22;101271.75;;;1.05;58.62
83140;BME280;73027;54.208;19.128;2024-01-06T00:54:48;101278.63;;;1.12;57.97
83140;BME280;73027;54.208;19.128;2024-01-06T00:57:13;101271.81;;;1.09;58.53
83140;BME280;73027;54.208;19.128;2024-01-06T00:59:38;101261.69;;;1.12;57.79
83140;BME280;73027;54.208;19.128;2024-01-06T01:02:04;101282.81;;;1.10;58.08
83140;BME280;73027;54.208;19.128;2024-01-06T01:04:29;101277.72;;;1.08;57.89
83140;BME280;73027;54.208;19.128;2024-01-06T01:06:55;101267.66;;;1.14;58.28
83140;BME280;73027;54.208;19.128;2024-01-06T01:09:20;101268.56;;;1.21;58.15
83140;BME280;73027;54.208;19.128;2024-01-06T01:11:46;101282.16;;;1.24;58.23
83140;BME280;73027;54.208;19.128;2024-01-06T01:14:11;101275.34;;;1.19;57.44
83140;BME280;73027;54.208;19.128;2024-01-06T01:16:37;101269.41;;;1.18;58.38
83140;BME280;73027;54.208;19.128;2024-01-06T01:19:02;101282.91;;;1.16;57.54
83140;BME280;73027;54.208;19.128;2024-01-06T01:21:28;101281.09;;;1.07;58.09
83140;BME280;73027;54.208;19.128;2024-01-06T01:23:53;101292.03;;;1.03;57.98
83140;BME280;73027;54.208;19.128;2024-01-06T01:26:19;101293.91;;;1.18;58.27
83140;BME280;73027;54.208;19.128;2024-01-06T01:28:44;101284.69;;;1.23;57.71
83140;BME280;73027;54.208;19.128;2024-01-06T01:31:10;101279.50;;;1.14;57.82
83140;BME280;73027;54.208;19.128;2024-01-06T01:33:35;101281.88;;;1.02;57.87
83140;BME280;73027;54.208;19.128;2024-01-06T01:36:00;101296.94;;;0.91;58.83
83140;BME280;73027;54.208;19.128;2024-01-06T01:38:26;101301.94;;;0.85;58.44
83140;BME280;73027;54.208;19.128;2024-01-06T01:40:51;101294.19;;;0.77;58.90
83140;BME280;73027;54.208;19.128;2024-01-06T01:43:20;101307.06;;;0.88;58.55
83140;BME280;73027;54.208;19.128;2024-01-06T01:45:57;101300.31;;;0.90;59.02
83140;BME280;73027;54.208;19.128;2024-01-06T01:48:24;101313.81;;;0.87;59.14
83140;BME280;73027;54.208;19.128;2024-01-06T01:50:52;101313.75;;;0.84;58.82
83140;BME280;73027;54.208;19.128;2024-01-06T01:53:19;101310.50;;;0.94;58.96
83140;BME280;73027;54.208;19.128;2024-01-06T01:55:45;101310.59;;;1.01;58.53
83140;BME280;73027;54.208;19.128;2024-01-06T01:58:12;101303.91;;;1.04;59.18
83140;BME280;73027;54.208;19.128;2024-01-06T02:00:39;101299.53;;;0.97;58.62
83140;BME280;73027;54.208;19.128;2024-01-06T02:03:05;101301.09;;;0.86;58.55
83140;BME280;73027;54.208;19.128;2024-01-06T02:05:30;101298.59;;;0.87;59.16
83140;BME280;73027;54.208;19.128;2024-01-06T02:07:56;101299.44;;;0.88;58.86
83140;BME280;73027;54.208;19.128;2024-01-06T02:10:22;101313.00;;;0.93;58.63
83140;BME280;73027;54.208;19.128;2024-01-06T02:12:49;101319.13;;;1.06;58.67
83140;BME280;73027;54.208;19.128;2024-01-06T02:15:17;101309.06;;;1.12;58.08
83140;BME280;73027;54.208;19.128;2024-01-06T02:17:43;101307.28;;;1.06;58.67
83140;BME280;73027;54.208;19.128;2024-01-06T02:20:08;101312.41;;;1.08;57.98
83140;BME280;73027;54.208;19.128;2024-01-06T02:22:35;101306.50;;;1.10;58.01
83140;BME280;73027;54.208;19.128;2024-01-06T02:25:02;101302.38;;;1.18;58.02
83140;BME280;73027;54.208;19.128;2024-01-06T02:27:32;101294.13;;;1.34;57.78
83140;BME280;73027;54.208;19.128;2024-01-06T02:29:58;101302.72;;;1.46;57.74
83140;BME280;73027;54.208;19.128;2024-01-06T02:32:23;101294.22;;;1.43;57.11
83140;BME280;73027;54.208;19.128;2024-01-06T02:34:49;101289.94;;;1.39;58.13
83140;BME280;73027;54.208;19.128;2024-01-06T02:37:14;101294.19;;;1.39;58.17
83140;BME280;73027;54.208;19.128;2024-01-06T02:39:39;101294.19;;;1.39;57.96
83140;BME280;73027;54.208;19.128;2024-01-06T02:42:05;101301.75;;;1.36;57.30
83140;BME280;73027;54.208;19.128;2024-01-06T02:44:30;101294.13;;;1.36;57.27
83140;BME280;73027;54.208;19.128;2024-01-06T02:46:56;101276.22;;;1.22;57.62
83140;BME280;73027;54.208;19.128;2024-01-06T02:49:21;101292.47;;;1.36;58.00
83140;BME280;73027;54.208;19.128;2024-01-06T02:51:47;101295.66;;;1.22;57.65
83140;BME280;73027;54.208;19.128;2024-01-06T02:54:13;101303.22;;;1.16;58.37
83140;BME280;73027;54.208;19.128;2024-01-06T02:56:38;101299.84;;;1.20;58.35
83140;BME280;73027;54.208;19.128;2024-01-06T02:59:04;101297.28;;;1.15;57.69
83140;BME280;73027;54.208;19.128;2024-01-06T03:01:31;101282.84;;;1.13;57.92
83140;BME280;73027;54.208;19.128;2024-01-06T03:03:57;101298.34;;;1.31;57.64
83140;BME280;73027;54.208;19.128;2024-01-06T03:06:22;101291.53;;;1.30;57.92
83140;BME280;73027;54.208;19.128;2024-01-06T03:08:47;101262.53;;;1.10;57.60
83140;BME280;73027;54.208;19.128;2024-01-06T03:11:13;101290.56;;;1.19;58.37
83140;BME280;73027;54.208;19.128;2024-01-06T03:13:38;101298.97;;;1.16;58.35
83140;BME280;73027;54.208;19.128;2024-01-06T03:16:04;101299.66;;;1.05;58.30
83140;BME280;73027;54.208;19.128;2024-01-06T03:18:32;101303.94;;;1.07;58.82
83140;BME280;73027;54.208;19.128;2024-01-06T03:20:57;101306.56;;;1.15;57.85
83140;BME280;73027;54.208;19.128;2024-01-06T03:23:23;101307.56;;;1.26;58.35
83140;BME280;73027;54.208;19.128;2024-01-06T03:25:48;101301.69;;;1.30;58.43
83140;BME280;73027;54.208;19.128;2024-01-06T03:28:14;101305.09;;;1.32;57.92
83140;BME280;73027;54.208;19.128;2024-01-06T03:30:39;101303.41;;;1.32;58.53
83140;BME280;73027;54.208;19.128;2024-01-06T03:33:06;101293.94;;;1.19;58.53
83140;BME280;73027;54.208;19.128;2024-01-06T03:35:31;101322.03;;;1.33;58.46
83140;BME280;73027;54.208;19.128;2024-01-06T03:37:57;101318.63;;;1.31;58.80
83140;BME280;73027;54.208;19.128;2024-01-06T03:40:22;101326.44;;;1.48;58.26
83140;BME280;73027;54.208;19.128;2024-01-06T03:42:48;101338.34;;;1.50;57.83
83140;BME280;73027;54.208;19.128;2024-01-06T03:45:13;101328.19;;;1.52;58.21
83140;BME280;73027;54.208;19.128;2024-01-06T03:47:39;101316.97;;;1.36;58.41
83140;BME280;73027;54.208;19.128;2024-01-06T03:50:04;101340.91;;;1.55;57.95
83140;BME280;73027;54.208;19.128;2024-01-06T03:52:30;101336.69;;;1.54;57.57
83140;BME280;73027;54.208;19.128;2024-01-06T03:54:55;101340.91;;;1.53;58.30
83140;BME280;73027;54.208;19.128;2024-01-06T03:57:21;101340.88;;;1.52;57.82
83140;BME280;73027;54.208;19.128;2024-01-06T03:59:46;101334.09;;;1.49;58.20
83140;BME280;73027;54.208;19.128;2024-01-06T04:02:12;101340.84;;;1.49;58.04
83140;BME280;73027;54.208;19.128;2024-01-06T04:04:37;101311.06;;;1.35;58.18
83140;BME280;73027;54.208;19.128;2024-01-06T04:07:03;101333.25;;;1.50;58.85
83140;BME280;73027;54.208;19.128;2024-01-06T04:09:28;101333.25;;;1.50;57.92
83140;BME280;73027;54.208;19.128;2024-01-06T04:11:53;101335.75;;;1.49;58.75
83140;BME280;73027;54.208;19.128;2024-01-06T04:14:19;101342.53;;;1.48;58.24
83140;BME280;73027;54.208;19.128;2024-01-06T04:16:44;101343.41;;;1.50;58.66
83140;BME280;73027;54.208;19.128;2024-01-06T04:19:10;101346.75;;;1.46;57.97
83140;BME280;73027;54.208;19.128;2024-01-06T04:21:37;101346.69;;;1.43;58.03
83140;BME280;73027;54.208;19.128;2024-01-06T04:24:03;101351.75;;;1.43;58.26
83140;BME280;73027;54.208;19.128;2024-01-06T04:26:29;101357.88;;;1.57;57.75
83140;BME280;73027;54.208;19.128;2024-01-06T04:28:54;101358.03;;;1.69;57.86
83140;BME280;73027;54.208;19.128;2024-01-06T04:31:20;101355.44;;;1.66;57.40
83140;BME280;73027;54.208;19.128;2024-01-06T04:33:45;101341.78;;;1.57;57.59
83140;BME280;73027;54.208;19.128;2024-01-06T04:36:10;101348.53;;;1.53;57.52
83140;BME280;73027;54.208;19.128;2024-01-06T04:38:36;101356.09;;;1.52;57.60
83140;BME280;73027;54.208;19.128;2024-01-06T04:41:01;101362.97;;;1.57;58.23
83140;BME280;73027;54.208;19.128;2024-01-06T04:43:27;101362.09;;;1.57;57.25
83140;BME280;73027;54.208;19.128;2024-01-06T04:45:52;101357.88;;;1.57;57.18
83140;BME280;73027;54.208;19.128;2024-01-06T04:48:18;101362.97;;;1.59;57.25
83140;BME280;73027;54.208;19.128;2024-01-06T04:50:43;101354.44;;;1.55;57.56
83140;BME280;73027;54.208;19.128;2024-01-06T04:53:09;101355.28;;;1.53;57.53
83140;BME280;73027;54.208;19.128;2024-01-06T04:55:34;101369.66;;;1.51;57.82
83140;BME280;73027;54.208;19.128;2024-01-06T04:58:00;101370.47;;;1.51;57.68
83140;BME280;73027;54.208;19.128;2024-01-06T05:00:25;101372.28;;;1.58;57.63
83140;BME280;73027;54.208;19.128;2024-01-06T05:02:51;101345.09;;;1.51;57.53
83140;BME280;73027;54.208;19.128;2024-01-06T05:05:17;101359.63;;;1.63;57.19
83140;BME280;73027;54.208;19.128;2024-01-06T05:07:42;101363.09;;;1.71;57.08
83140;BME280;73027;54.208;19.128;2024-01-06T05:10:08;101359.78;;;1.75;57.38
83140;BME280;73027;54.208;19.128;2024-01-06T05:12:33;101360.66;;;1.77;56.71
83140;BME280;73027;54.208;19.128;2024-01-06T05:14:59;101364.00;;;1.74;57.75
83140;BME280;73027;54.208;19.128;2024-01-06T05:17:24;101366.53;;;1.73;57.43
83140;BME280;73027;54.208;19.128;2024-01-06T05:19:49;101354.50;;;1.60;57.28
83140;BME280;73027;54.208;19.128;2024-01-06T05:22:15;101340.75;;;1.41;57.72
83140;BME280;73027;54.208;19.128;2024-01-06T05:24:40;101379.03;;;1.58;57.93
83140;BME280;73027;54.208;19.128;2024-01-06T05:27:06;101370.53;;;1.56;57.28
83140;BME280;73027;54.208;19.128;2024-01-06T05:29:31;101370.53;;;1.54;57.47
83140;BME280;73027;54.208;19.128;2024-01-06T05:31:57;101385.78;;;1.56;57.88
83140;BME280;73027;54.208;19.128;2024-01-06T05:34:22;101384.06;;;1.53;57.00
83140;BME280;73027;54.208;19.128;2024-01-06T05:36:47;101395.97;;;1.57;57.51
83140;BME280;73027;54.208;19.128;2024-01-06T05:39:13;101395.09;;;1.57;57.49
83140;BME280;73027;54.208;19.128;2024-01-06T05:41:39;101397.59;;;1.55;57.14
83140;BME280;73027;54.208;19.128;2024-01-06T05:44:05;101408.63;;;1.56;57.32
83140;BME280;73027;54.208;19.128;2024-01-06T05:46:30;101403.56;;;1.59;57.58
83140;BME280;73027;54.208;19.128;2024-01-06T05:48:56;101407.00;;;1.61;57.11
83140;BME280;73027;54.208;19.128;2024-01-06T05:51:22;101410.34;;;1.57;57.63
83140;BME280;73027;54.208;19.128;2024-01-06T05:53:47;101410.38;;;1.60;57.78
83140;BME280;73027;54.208;19.128;2024-01-06T05:56:26;101412.13;;;1.64;57.15
83140;BME280;73027;54.208;19.128;2024-01-06T05:58:55;101417.34;;;1.76;56.85
83140;BME280;73027;54.208;19.128;2024-01-06T06:01:20;101417.47;;;1.85;57.20
83140;BME280;73027;54.208;19.128;2024-01-06T06:03:47;101420.13;;;1.92;56.34
83140;BME280;73027;54.208;19.128;2024-01-06T06:06:13;101418.41;;;1.91;55.86
83140;BME280;73027;54.208;19.128;2024-01-06T06:08:40;101414.09;;;1.86;55.42
83140;BME280;73027;54.208;19.128;2024-01-06T06:11:07;101421.56;;;1.75;56.11
83140;BME280;73027;54.208;19.128;2024-01-06T06:13:40;101436.75;;;1.69;56.21
83140;BME280;73027;54.208;19.128;2024-01-06T06:16:09;101439.28;;;1.71;56.10
83140;BME280;73027;54.208;19.128;2024-01-06T06:18:35;101434.97;;;1.64;55.81
83140;BME280;73027;54.208;19.128;2024-01-06T06:21:10;101443.28;;;1.51;56.17
83140;BME280;73027;54.208;19.128;2024-01-06T06:23:37;101444.78;;;1.39;56.07
83140;BME280;73027;54.208;19.128;2024-01-06T06:26:06;101445.69;;;1.41;57.07
83140;BME280;73027;54.208;19.128;2024-01-06T06:28:32;101436.19;;;1.30;56.87
83140;BME280;73027;54.208;19.128;2024-01-06T06:30:57;101462.53;;;1.39;56.59
83140;BME280;73027;54.208;19.128;2024-01-06T06:33:23;101430.13;;;1.20;57.49
83140;BME280;73027;54.208;19.128;2024-01-06T06:35:48;101459.19;;;1.39;56.67
83140;BME280;73027;54.208;19.128;2024-01-06T06:38:13;101460.00;;;1.39;56.72
83140;BME280;73027;54.208;19.128;2024-01-06T06:40:39;101460.78;;;1.34;57.06
83140;BME280;73027;54.208;19.128;2024-01-06T06:43:04;101464.94;;;1.29;56.93
83140;BME280;73027;54.208;19.128;2024-01-06T06:45:30;101465.00;;;1.33;57.76
83140;BME280;73027;54.208;19.128;2024-01-06T06:47:55;101470.91;;;1.32;56.98
83140;BME280;73027;54.208;19.128;2024-01-06T06:50:21;101476.69;;;1.22;57.36
83140;BME280;73027;54.208;19.128;2024-01-06T06:52:47;101483.44;;;1.22;58.12
83140;BME280;73027;54.208;19.128;2024-01-06T06:55:12;101478.44;;;1.28;57.40
83140;BME280;73027;54.208;19.128;2024-01-06T06:57:38;101481.88;;;1.30;57.20
83140;BME280;73027;54.208;19.128;2024-01-06T07:00:05;101475.25;;;1.38;57.56
83140;BME280;73027;54.208;19.128;2024-01-06T07:02:32;101483.03;;;1.50;56.98
83140;BME280;73027;54.208;19.128;2024-01-06T07:04:58;101488.13;;;1.50;56.45
83140;BME280;73027;54.208;19.128;2024-01-06T07:07:23;101488.00;;;1.44;57.25
83140;BME280;73027;54.208;19.128;2024-01-06T07:09:49;101483.84;;;1.49;56.58
83140;BME280;73027;54.208;19.128;2024-01-06T07:12:14;101482.94;;;1.44;56.43
83140;BME280;73027;54.208;19.128;2024-01-06T07:14:39;101484.69;;;1.47;56.98
83140;BME280;73027;54.208;19.128;2024-01-06T07:17:05;101487.22;;;1.47;56.48
83140;BME280;73027;54.208;19.128;2024-01-06T07:19:32;101482.06;;;1.42;55.94
83140;BME280;73027;54.208;19.128;2024-01-06T07:21:57;101482.06;;;1.43;56.05
83140;BME280;73027;54.208;19.128;2024-01-06T07:24:23;101491.50;;;1.52;56.00
83140;BME280;73027;54.208;19.128;2024-01-06T07:26:48;101494.16;;;1.58;56.02
83140;BME280;73027;54.208;19.128;2024-01-06T07:29:14;101487.38;;;1.59;56.51
83140;BME280;73027;54.208;19.128;2024-01-06T07:31:39;101500.13;;;1.63;56.18
83140;BME280;73027;54.208;19.128;2024-01-06T07:34:04;101494.28;;;1.67;55.44
83140;BME280;73027;54.208;19.128;2024-01-06T07:36:31;101503.75;;;1.77;55.58
83140;BME280;73027;54.208;19.128;2024-01-06T07:38:57;101509.09;;;1.99;55.04
83140;BME280;73027;54.208;19.128;2024-01-06T07:41:22;101502.41;;;2.04;54.89
83140;BME280;73027;54.208;19.128;2024-01-06T07:43:48;101511.94;;;2.24;54.49
83140;BME280;73027;54.208;19.128;2024-01-06T07:46:14;101510.34;;;2.32;53.87
83140;BME280;73027;54.208;19.128;2024-01-06T07:48:40;101515.69;;;2.55;54.15
83140;BME280;73027;54.208;19.128;2024-01-06T07:51:05;101521.75;;;2.65;53.34
83140;BME280;73027;54.208;19.128;2024-01-06T07:53:31;101528.50;;;2.63;53.57
83140;BME280;73027;54.208;19.128;2024-01-06T07:55:56;101527.63;;;2.61;52.92
83140;BME280;73027;54.208;19.128;2024-01-06T07:58:22;101537.00;;;2.65;52.83
83140;BME280;73027;54.208;19.128;2024-01-06T08:00:47;101536.31;;;2.79;52.20
83140;BME280;73027;54.208;19.128;2024-01-06T08:03:13;101545.75;;;2.91;52.14
83140;BME280;73027;54.208;19.128;2024-01-06T08:05:38;101546.69;;;2.99;51.71
83140;BME280;73027;54.208;19.128;2024-01-06T08:08:05;101551.84;;;3.04;51.48
83140;BME280;73027;54.208;19.128;2024-01-06T08:10:30;101550.22;;;3.12;51.55
83140;BME280;73027;54.208;19.128;2024-01-06T08:12:56;101562.19;;;3.25;51.27
83140;BME280;73027;54.208;19.128;2024-01-06T08:15:22;101559.69;;;3.29;50.54
83140;BME280;73027;54.208;19.128;2024-01-06T08:17:47;101553.72;;;3.26;50.33
83140;BME280;73027;54.208;19.128;2024-01-06T08:20:13;101554.50;;;3.16;50.32
83140;BME280;73027;54.208;19.128;2024-01-06T08:22:39;101565.47;;;3.10;50.27
83140;BME280;73027;54.208;19.128;2024-01-06T08:25:04;101559.47;;;3.04;50.17
83140;BME280;73027;54.208;19.128;2024-01-06T08:27:32;101558.59;;;3.03;49.68
83140;BME280;73027;54.208;19.128;2024-01-06T08:29:58;101572.28;;;3.14;49.80
83140;BME280;73027;54.208;19.128;2024-01-06T08:32:23;101573.97;;;3.14;49.42
83140;BME280;73027;54.208;19.128;2024-01-06T08:34:48;101590.19;;;3.23;49.22
83140;BME280;73027;54.208;19.128;2024-01-06T08:37:14;101588.59;;;3.31;49.69
83140;BME280;73027;54.208;19.128;2024-01-06T08:39:39;101598.09;;;3.52;49.15
83140;BME280;73027;54.208;19.128;2024-01-06T08:42:05;101600.75;;;3.63;48.81
83140;BME280;73027;54.208;19.128;2024-01-06T08:44:30;101590.47;;;3.57;48.83
83140;BME280;73027;54.208;19.128;2024-01-06T08:46:56;101584.63;;;3.68;48.57
83140;BME280;73027;54.208;19.128;2024-01-06T08:49:21;101593.22;;;3.82;48.28
83140;BME280;73027;54.208;19.128;2024-01-06T08:51:47;101591.59;;;3.92;47.97
83140;BME280;73027;54.208;19.128;2024-01-06T08:54:12;101591.69;;;4.07;47.63
83140;BME280;73027;54.208;19.128;2024-01-06T08:56:38;101595.94;;;4.08;47.36
83140;BME280;73027;54.208;19.128;2024-01-06T08:59:03;101599.34;;;4.10;47.54
83140;BME280;73027;54.208;19.128;2024-01-06T09:01:29;101596.78;;;4.07;47.25
83140;BME280;73027;54.208;19.128;2024-01-06T09:03:54;101594.22;;;4.01;47.82
83140;BME280;73027;54.208;19.128;2024-01-06T09:06:20;101602.72;;;4.05;47.46
83140;BME280;73027;54.208;19.128;2024-01-06T09:08:45;101606.97;;;4.01;47.71
83140;BME280;73027;54.208;19.128;2024-01-06T09:11:10;101612.91;;;4.06;47.39
83140;BME280;73027;54.208;19.128;2024-01-06T09:13:36;101608.66;;;4.02;47.25
83140;BME280;73027;54.208;19.128;2024-01-06T09:16:01;101615.50;;;4.08;47.67
83140;BME280;73027;54.208;19.128;2024-01-06T09:18:28;101617.19;;;4.09;47.21
83140;BME280;73027;54.208;19.128;2024-01-06T09:20:53;101611.19;;;4.02;46.71
83140;BME280;73027;54.208;19.128;2024-01-06T09:23:19;101608.66;;;4.01;46.97
83140;BME280;73027;54.208;19.128;2024-01-06T09:25:46;101606.13;;;4.05;47.02
83140;BME280;73027;54.208;19.128;2024-01-06T09:28:14;101618.09;;;4.17;46.38
83140;BME280;73027;54.208;19.128;2024-01-06T09:30:39;101623.25;;;4.26;47.13
83140;BME280;73027;54.208;19.128;2024-01-06T09:33:05;101629.28;;;4.45;46.51
83140;BME280;73027;54.208;19.128;2024-01-06T09:35:30;101632.81;;;4.63;46.73
83140;BME280;73027;54.208;19.128;2024-01-06T09:37:56;101637.97;;;4.80;46.67
83140;BME280;73027;54.208;19.128;2024-01-06T09:40:23;101632.91;;;5.00;46.05
83140;BME280;73027;54.208;19.128;2024-01-06T09:42:50;101630.44;;;5.35;45.64
83140;BME280;73027;54.208;19.128;2024-01-06T09:45:15;101630.31;;;6.66;44.30
83140;BME280;73027;54.208;19.128;2024-01-06T09:47:41;101625.47;;;8.52;41.38
83140;BME280;73027;54.208;19.128;2024-01-06T09:50:08;101640.47;;;8.86;40.54
83140;BME280;73027;54.208;19.128;2024-01-06T09:52:40;101635.41;;;9.41;39.48
83140;BME280;73027;54.208;19.128;2024-01-06T09:55:10;101637.94;;;9.45;38.43
83140;BME280;73027;54.208;19.128;2024-01-06T09:57:36;101642.16;;;8.87;38.49
83140;BME280;73027;54.208;19.128;2024-01-06T10:00:02;101644.47;;;8.38;38.89
83140;BME280;73027;54.208;19.128;2024-01-06T10:02:29;101639.72;;;7.92;39.29
83140;BME280;73027;54.208;19.128;2024-01-06T10:04:57;101651.16;;;7.56;39.69
83140;BME280;73027;54.208;19.128;2024-01-06T10:07:25;101646.31;;;7.08;39.88
83140;BME280;73027;54.208;19.128;2024-01-06T10:09:50;101658.44;;;6.72;38.99
83140;BME280;73027;54.208;19.128;2024-01-06T10:12:23;101661.13;;;6.41;40.11
83140;BME280;73027;54.208;19.128;2024-01-06T10:14:49;101656.00;;;6.22;39.66
83140;BME280;73027;54.208;19.128;2024-01-06T10:17:14;101651.78;;;6.25;40.48
83140;BME280;73027;54.208;19.128;2024-01-06T10:19:39;101651.75;;;6.29;40.68
83140;BME280;73027;54.208;19.128;2024-01-06T10:22:05;101662.00;;;6.28;40.03
83140;BME280;73027;54.208;19.128;2024-01-06T10:24:32;101656.88;;;6.18;40.10
83140;BME280;73027;54.208;19.128;2024-01-06T10:26:58;101663.72;;;6.06;40.42
83140;BME280;73027;54.208;19.128;2024-01-06T10:29:25;101668.84;;;5.94;40.43
83140;BME280;73027;54.208;19.128;2024-01-06T10:31:51;101665.44;;;5.93;40.67
83140;BME280;73027;54.208;19.128;2024-01-06T10:34:17;101666.25;;;6.10;41.01
83140;BME280;73027;54.208;19.128;2024-01-06T10:36:43;101660.28;;;6.27;40.51
83140;BME280;73027;54.208;19.128;2024-01-06T10:39:09;101656.03;;;6.19;40.03
83140;BME280;73027;54.208;19.128;2024-01-06T10:41:35;101661.16;;;6.10;40.34
83140;BME280;73027;54.208;19.128;2024-01-06T10:44:05;101673.09;;;5.87;40.20
83140;BME280;73027;54.208;19.128;2024-01-06T10:46:31;101673.06;;;5.73;40.78
83140;BME280;73027;54.208;19.128;2024-01-06T10:48:58;101661.97;;;5.61;41.38
83140;BME280;73027;54.208;19.128;2024-01-06T10:51:25;101667.97;;;5.63;41.94
83140;BME280;73027;54.208;19.128;2024-01-06T10:53:50;101678.16;;;5.52;42.08
83140;BME280;73027;54.208;19.128;2024-01-06T10:56:17;101682.41;;;5.46;41.90
83140;BME280;73027;54.208;19.128;2024-01-06T10:58:47;101681.53;;;5.45;41.76
83140;BME280;73027;54.208;19.128;2024-01-06T11:01:16;101680.72;;;5.40;42.80
83140;BME280;73027;54.208;19.128;2024-01-06T11:03:45;101680.69;;;5.37;42.73
83140;BME280;73027;54.208;19.128;2024-01-06T11:06:11;101676.41;;;5.30;42.29
83140;BME280;73027;54.208;19.128;2024-01-06T11:09:02;101679.81;;;5.31;42.38
83140;BME280;73027;54.208;19.128;2024-01-06T11:11:30;101675.59;;;5.39;42.54
83140;BME280;73027;54.208;19.128;2024-01-06T11:14:22;101674.75;;;5.40;42.67
83140;BME280;73027;54.208;19.128;2024-01-06T11:16:48;101680.72;;;5.40;43.02
83140;BME280;73027;54.208;19.128;2024-01-06T11:22:27;101673.00;;;5.28;41.99
83140;BME280;73027;54.208;19.128;2024-01-06T11:24:55;101662.78;;;5.31;42.72
83140;BME280;73027;54.208;19.128;2024-01-06T11:27:25;101650.84;;;5.22;42.65
83140;BME280;73027;54.208;19.128;2024-01-06T11:29:57;101664.50;;;5.27;42.80
83140;BME280;73027;54.208;19.128;2024-01-06T11:32:33;101672.13;;;5.23;42.69
83140;BME280;73027;54.208;19.128;2024-01-06T11:35:09;101662.75;;;5.13;43.10
83140;BME280;73027;54.208;19.128;2024-01-06T11:42:49;101689.16;;;5.19;44.28
83140;BME280;73027;54.208;19.128;2024-01-06T11:45:21;101675.53;;;5.19;44.00
83140;BME280;73027;54.208;19.128;2024-01-06T11:47:48;101683.19;;;5.16;43.90
83140;BME280;73027;54.208;19.128;2024-01-06T11:50:14;101681.50;;;5.13;43.99
83140;BME280;73027;54.208;19.128;2024-01-06T11:52:39;101678.06;;;5.14;44.46
83140;BME280;73027;54.208;19.128;2024-01-06T11:55:05;101676.38;;;5.15;44.20
83140;BME280;73027;54.208;19.128;2024-01-06T11:57:37;101673.84;;;5.16;44.00
83140;BME280;73027;54.208;19.128;2024-01-06T12:00:03;101680.63;;;5.19;44.62
83140;BME280;73027;54.208;19.128;2024-01-06T12:02:29;101675.56;;;5.25;44.47
83140;BME280;73027;54.208;19.128;2024-01-06T12:04:55;101678.13;;;5.25;43.99
83140;BME280;73027;54.208;19.128;2024-01-06T12:07:21;101673.78;;;5.07;44.13
83140;BME280;73027;54.208;19.128;2024-01-06T12:09:51;101679.72;;;4.93;44.42
83140;BME280;73027;54.208;19.128;2024-01-06T12:12:26;101668.56;;;4.71;44.28
83140;BME280;73027;54.208;19.128;2024-01-06T12:14:51;101692.34;;;4.71;44.03
83140;BME280;73027;54.208;19.128;2024-01-06T12:17:17;101692.31;;;4.58;43.89
83140;BME280;73027;54.208;19.128;2024-01-06T12:19:42;101688.81;;;4.48;44.02
83140;BME280;73027;54.208;19.128;2024-01-06T12:22:11;101693.91;;;4.45;44.59
83140;BME280;73027;54.208;19.128;2024-01-06T12:24:38;101696.50;;;4.50;44.07
83140;BME280;73027;54.208;19.128;2024-01-06T12:27:06;101713.53;;;4.54;44.49
83140;BME280;73027;54.208;19.128;2024-01-06T12:29:32;101711.78;;;4.47;44.02
83140;BME280;73027;54.208;19.128;2024-01-06T12:31:59;101709.16;;;4.35;44.29
83140;BME280;73027;54.208;19.128;2024-01-06T12:34:24;101675.03;;;4.13;44.34
83140;BME280;73027;54.208;19.128;2024-01-06T12:36:52;101692.94;;;4.23;44.20
83140;BME280;73027;54.208;19.128;2024-01-06T12:39:20;101690.38;;;4.20;44.79
83140;BME280;73027;54.208;19.128;2024-01-06T12:41:45;101693.69;;;4.13;44.31
83140;BME280;73027;54.208;19.128;2024-01-06T12:44:11;101699.56;;;4.02;44.80
83140;BME280;73027;54.208;19.128;2024-01-06T12:46:38;101694.41;;;3.94;44.83
83140;BME280;73027;54.208;19.128;2024-01-06T12:49:03;101696.06;;;3.86;44.42
83140;BME280;73027;54.208;19.128;2024-01-06T12:51:29;101704.31;;;3.62;44.75
83140;BME280;73027;54.208;19.128;2024-01-06T12:53:54;101703.41;;;3.54;45.16